Time;durP1;ratioP1;P1;durP2;ratioP2;P2;SDS_P1;SDS_P2;PMS_P1;PMS_P2;Temp;Humidity;BMP_temperature;BMP_pressure;BME280_temperature;BME280_humidity;BME280_pressure;Samples;Min_cycle;Max_cycle;Signal;HPM_P1;HPM_P2
2022/03/01 00:00:08;;;;;;;21.38;11.82;;;;;;;2.71;83.54;100781.22;10331233;28;20045;-76
2022/03/01 00:05:09;;;;;;;20.50;12.15;;;;;;;3.84;84.85;100973.78;10337298;28;20088;-76
2022/03/01 00:10:10;;;;;;;20.83;10.90;;;;;;;3.84;85.52;100976.41;10340733;28;20347;-76
2022/03/01 00:15:11;;;;;;;20.42;11.35;;;;;;;3.79;85.81;100981.13;10339081;28;20394;-76
2022/03/01 00:20:12;;;;;;;22.17;11.98;;;;;;;2.86;85.96;100830.97;10339563;28;20044;-76
2022/03/01 00:25:13;;;;;;;21.67;12.32;;;;;;;3.14;86.29;100878.00;10339235;28;20485;-76
2022/03/01 00:30:14;;;;;;;21.88;10.80;;;;;;;3.25;86.39;100889.50;10338643;28;20023;-76
2022/03/01 00:35:16;;;;;;;22.02;13.05;;;;;;;3.64;86.51;100946.28;10338962;28;20030;-76
2022/03/01 00:40:16;;;;;;;19.90;11.07;;;;;;;3.85;86.44;100980.69;10338693;28;20069;-76
2022/03/01 00:45:17;;;;;;;22.77;11.38;;;;;;;3.64;86.61;100941.84;10338019;28;20425;-76
2022/03/01 00:50:18;;;;;;;18.17;9.88;;;;;;;3.29;86.45;100881.31;10338828;28;20449;-75
2022/03/01 00:55:19;;;;;;;22.45;11.95;;;;;;;3.22;86.01;100852.97;10337869;28;20122;-76
2022/03/01 01:00:20;;;;;;;19.20;10.00;;;;;;;3.31;85.84;100875.94;10338023;28;20474;-75
2022/03/01 01:05:22;;;;;;;18.73;9.95;;;;;;;3.30;85.85;100853.28;10337807;28;20042;-75
2022/03/01 01:10:23;;;;;;;21.13;11.45;;;;;;;3.95;85.61;100955.47;10336897;28;20065;-76
2022/03/01 01:15:24;;;;;;;20.15;10.90;;;;;;;3.60;85.90;100898.38;10336682;28;20066;-76
2022/03/01 01:20:25;;;;;;;18.65;11.95;;;;;;;4.10;85.74;100985.06;10336690;28;20046;-76
2022/03/01 01:25:26;;;;;;;22.60;12.38;;;;;;;3.86;85.94;100945.59;10337554;28;20467;-75
2022/03/01 01:30:31;;;;;;;23.27;12.27;;;;;;;3.57;86.13;100901.22;10337240;28;20042;-76
2022/03/01 01:35:34;;;;;;;20.60;10.88;;;;;;;2.70;85.73;100755.97;10337249;28;20030;-76
2022/03/01 01:40:36;;;;;;;24.05;12.65;;;;;;;4.15;86.42;100987.34;10336829;28;20054;-76
2022/03/01 01:45:37;;;;;;;22.15;12.15;;;;;;;4.11;86.46;100992.00;10334475;28;20431;-76
2022/03/01 01:50:37;;;;;;;20.88;12.35;;;;;;;3.26;86.12;100876.28;10336483;28;20073;-75
2022/03/01 01:55:38;;;;;;;26.65;13.30;;;;;;;3.91;86.73;101001.28;10335175;28;20145;-75
2022/03/01 02:00:39;;;;;;;23.48;12.10;;;;;;;3.14;86.51;100878.00;10336243;28;20386;-76
2022/03/01 02:05:40;;;;;;;20.90;12.38;;;;;;;3.81;86.75;100995.03;10334835;28;20117;-76
2022/03/01 02:10:41;;;;;;;22.15;12.85;;;;;;;3.85;87.13;101017.50;10335283;28;20037;-75
2022/03/01 02:15:42;;;;;;;25.23;12.73;;;;;;;3.85;86.97;101002.56;10335057;28;20065;-76
2022/03/01 02:20:43;;;;;;;23.15;12.15;;;;;;;3.70;86.85;100984.41;10335558;28;20023;-75
2022/03/01 02:25:44;;;;;;;20.48;12.30;;;;;;;3.04;87.43;100876.94;10334662;28;20471;-76
2022/03/01 02:30:45;;;;;;;23.98;13.48;;;;;;;3.78;87.57;101000.50;10333826;28;20113;-76
2022/03/01 02:35:46;;;;;;;21.92;13.07;;;;;;;3.73;87.13;100992.09;10333818;28;20037;-75
2022/03/01 02:40:47;;;;;;;21.63;11.95;;;;;;;3.61;87.11;100973.59;10330469;28;20081;-75
2022/03/01 02:45:47;;;;;;;25.13;13.02;;;;;;;3.71;87.40;101000.09;10309864;28;20427;-76
2022/03/01 02:50:49;;;;;;;20.30;12.05;;;;;;;3.83;87.00;101006.28;10293336;28;20049;-75
2022/03/01 02:55:50;;;;;;;19.75;12.02;;;;;;;3.15;87.42;100903.28;10293504;28;20034;-75
2022/03/01 03:00:51;;;;;;;21.67;12.27;;;;;;;3.83;87.58;101012.38;10293338;28;20412;-75
2022/03/01 03:05:52;;;;;;;23.98;12.02;;;;;;;3.69;87.36;100993.25;10305670;28;20034;-76
2022/03/01 03:10:53;;;;;;;23.98;12.30;;;;;;;3.85;87.30;101031.47;10332537;28;20034;-75
2022/03/01 03:15:54;;;;;;;22.48;11.70;;;;;;;3.88;87.46;101028.63;10332202;28;20486;-76
2022/03/01 03:20:55;;;;;;;19.85;11.55;;;;;;;3.91;87.69;101032.84;10332334;28;20096;-75
2022/03/01 03:25:56;;;;;;;19.25;11.32;;;;;;;3.94;86.84;101042.28;10332236;28;20046;-76
2022/03/01 03:30:56;;;;;;;16.67;11.02;;;;;;;3.76;87.03;100997.13;10332242;28;20062;-76
2022/03/01 03:35:58;;;;;;;19.67;11.50;;;;;;;3.94;86.89;101037.03;10331690;28;20197;-76
2022/03/01 03:40:59;;;;;;;25.00;11.70;;;;;;;3.13;86.70;100899.91;10331455;28;20060;-75
2022/03/01 03:46:00;;;;;;;23.42;11.60;;;;;;;3.89;86.80;101046.09;10331635;28;20124;-75
2022/03/01 03:51:00;;;;;;;21.42;11.85;;;;;;;3.91;87.02;101037.25;10331529;28;20046;-75
2022/03/01 03:56:01;;;;;;;15.75;9.43;;;;;;;3.09;87.30;100901.09;10305997;28;20033;-76
2022/03/01 04:01:03;;;;;;;22.90;12.05;;;;;;;3.88;87.09;101028.63;10305919;28;20043;-72
2022/03/01 04:06:05;;;;;;;24.80;11.77;;;;;;;3.91;87.27;101056.50;10291132;28;20093;-73
2022/03/01 04:11:05;;;;;;;19.67;11.70;;;;;;;3.03;86.78;100891.00;10291655;28;20125;-72
2022/03/01 04:16:06;;;;;;;21.08;10.38;;;;;;;3.12;87.13;100895.63;10291183;28;20114;-71
2022/03/01 04:21:07;;;;;;;17.17;10.50;;;;;;;3.89;87.10;101030.31;10291478;28;20039;-73
2022/03/01 04:26:08;;;;;;;20.80;12.07;;;;;;;3.91;87.41;101032.84;10291152;28;20455;-74
2022/03/01 04:31:09;;;;;;;18.98;10.00;;;;;;;3.86;86.56;101041.06;10291273;28;20043;-71
2022/03/01 04:36:10;;;;;;;18.77;11.25;;;;;;;3.99;86.94;101040.19;10289837;28;20031;-71
2022/03/01 04:41:11;;;;;;;23.73;12.07;;;;;;;3.75;86.76;100991.03;10290772;28;20061;-73
2022/03/01 04:46:11;;;;;;;20.60;11.48;;;;;;;4.09;85.77;101047.31;10291478;28;20039;-72
2022/03/01 04:51:12;;;;;;;20.73;11.15;;;;;;;4.02;85.73;101046.06;10295317;28;20034;-73
2022/03/01 04:56:13;;;;;;;20.35;10.48;;;;;;;4.17;85.54;101057.28;10298139;28;20041;-73
2022/03/01 05:01:14;;;;;;;16.60;9.20;;;;;;;3.56;85.11;100943.34;10296444;28;20130;-73
2022/03/01 05:06:15;;;;;;;20.35;10.73;;;;;;;3.52;84.61;100937.47;10297109;28;20364;-73
2022/03/01 05:11:16;;;;;;;18.02;10.23;;;;;;;4.45;84.24;101069.28;10297317;28;20045;-73
2022/03/01 05:16:16;;;;;;;17.95;9.93;;;;;;;4.50;84.12;101064.53;10297385;28;20490;-73
2022/03/01 05:21:17;;;;;;;14.77;9.05;;;;;;;4.44;83.64;101045.75;10296477;28;20118;-73
2022/03/01 05:26:18;;;;;;;12.73;6.85;;;;;;;4.50;82.41;101032.97;10296149;28;20513;-73
2022/03/01 05:31:19;;;;;;;14.98;9.50;;;;;;;4.68;82.69;101049.22;10296030;28;20047;-73
2022/03/01 05:36:20;;;;;;;14.93;8.77;;;;;;;3.89;82.35;100898.06;10296916;28;20039;-73
2022/03/01 05:41:24;;;;;;;15.82;9.85;;;;;;;4.87;82.49;101032.88;10296065;28;20046;-73
2022/03/01 05:46:24;;;;;;;14.57;8.40;;;;;;;4.44;81.66;100928.19;10296138;28;20027;-73
2022/03/01 05:51:25;;;;;;;15.30;9.45;;;;;;;5.07;80.65;101020.88;10295161;28;20046;-73
2022/03/01 05:56:26;;;;;;;13.05;7.85;;;;;;;5.37;79.62;101036.13;10295351;28;20089;-73
2022/03/01 06:01:27;;;;;;;17.25;8.57;;;;;;;5.57;79.68;101046.94;10295093;28;20030;-72
2022/03/01 06:06:28;;;;;;;16.50;8.68;;;;;;;5.76;79.22;101036.63;10295217;28;20038;-73
2022/03/01 06:11:28;;;;;;;12.18;8.13;;;;;;;5.71;78.64;101007.16;10295120;28;20475;-74
2022/03/01 06:16:29;;;;;;;12.05;7.43;;;;;;;5.79;79.12;101049.59;10294349;28;20165;-73
2022/03/01 06:21:30;;;;;;;14.80;8.90;;;;;;;4.94;78.71;100941.97;10294535;28;20045;-73
2022/03/01 06:26:32;;;;;;;14.88;8.25;;;;;;;5.51;78.68;101036.88;10294655;28;20487;-73
2022/03/01 06:31:33;;;;;;;13.10;6.80;;;;;;;4.87;77.99;100903.88;10293731;28;20184;-74
2022/03/01 06:36:34;;;;;;;17.10;9.50;;;;;;;5.43;79.60;100988.22;10294097;28;20157;-73
2022/03/01 06:41:35;;;;;;;16.80;9.95;;;;;;;5.70;79.01;100990.50;10294580;28;20051;-73
2022/03/01 06:46:35;;;;;;;17.50;8.63;;;;;;;6.09;77.26;101032.34;10293716;28;20122;-73
2022/03/01 06:51:37;;;;;;;16.77;9.23;;;;;;;5.48;77.34;100929.91;10293818;28;20041;-73
2022/03/01 06:56:38;;;;;;;11.05;6.20;;;;;;;6.09;76.52;101005.97;10292895;28;20485;-73
2022/03/01 07:01:39;;;;;;;16.48;9.25;;;;;;;5.53;76.93;100901.38;10291578;28;20209;-73
2022/03/01 07:06:39;;;;;;;18.60;9.55;;;;;;;6.39;76.61;101000.84;10292508;28;20398;-73
2022/03/01 07:11:40;;;;;;;14.60;9.00;;;;;;;6.51;74.46;101003.44;10292735;28;20035;-73
2022/03/01 07:16:41;;;;;;;16.13;8.50;;;;;;;6.72;73.91;101020.16;10292789;28;20494;-73
2022/03/01 07:21:42;;;;;;;13.63;8.43;;;;;;;6.75;73.00;101021.72;10292825;28;20114;-73
2022/03/01 07:26:43;;;;;;;14.68;9.05;;;;;;;6.30;73.51;100919.78;10292562;28;20121;-74
2022/03/01 07:31:44;;;;;;;11.23;7.28;;;;;;;6.57;72.28;100973.91;10292101;28;20467;-73
2022/03/01 07:36:45;;;;;;;14.48;8.95;;;;;;;5.45;72.81;100787.88;10292823;28;20485;-73
2022/03/01 07:41:45;;;;;;;10.90;5.90;;;;;;;6.46;73.07;100952.84;10292332;28;20047;-74
2022/03/01 07:46:46;;;;;;;13.85;8.30;;;;;;;6.68;75.19;101018.75;10292447;28;20042;-73
2022/03/01 07:51:49;;;;;;;18.70;8.68;;;;;;;6.64;73.42;101001.47;10291809;28;20054;-73
2022/03/01 07:56:50;;;;;;;14.82;6.95;;;;;;;6.74;73.92;101007.69;10291863;28;20047;-73
2022/03/01 08:01:50;;;;;;;13.65;8.50;;;;;;;6.59;75.50;100998.38;10291807;28;20071;-73
2022/03/01 08:06:51;;;;;;;15.88;8.98;;;;;;;6.39;76.84;100998.19;10291963;28;20054;-73
2022/03/01 08:11:52;;;;;;;17.05;8.52;;;;;;;6.05;77.39;100960.53;10291412;28;20423;-73
2022/03/01 08:16:53;;;;;;;12.43;7.35;;;;;;;6.20;77.91;100981.38;10290888;28;20094;-73
2022/03/01 08:21:54;;;;;;;14.52;8.20;;;;;;;6.20;77.83;100968.19;10291260;28;20054;-73
2022/03/01 08:26:55;;;;;;;11.10;7.60;;;;;;;6.22;77.38;100967.06;10297000;28;20030;-73
2022/03/01 08:31:56;;;;;;;16.25;8.75;;;;;;;5.70;77.42;100881.59;10298734;28;20035;-73
2022/03/01 08:36:57;;;;;;;13.57;8.27;;;;;;;6.31;78.62;100962.84;10298209;28;20110;-73
2022/03/01 08:41:57;;;;;;;12.35;8.40;;;;;;;6.05;78.76;100878.78;10298578;28;20057;-73
2022/03/01 08:46:58;;;;;;;12.95;7.32;;;;;;;5.40;77.42;100729.44;10298675;28;20035;-74
2022/03/01 08:51:59;;;;;;;15.90;8.40;;;;;;;6.85;76.42;100941.63;10297601;28;20070;-73
2022/03/01 08:57:00;;;;;;;17.83;8.80;;;;;;;7.07;76.24;100935.34;10297440;28;20038;-73
2022/03/01 09:02:01;;;;;;;13.57;6.60;;;;;;;7.22;76.11;100941.13;10297189;28;20050;-74
2022/03/01 09:07:03;;;;;;;13.00;7.55;;;;;;;7.30;75.09;100940.47;10296976;28;20142;-73
2022/03/01 09:12:05;;;;;;;8.95;5.15;;;;;;;7.26;74.93;100924.00;10297382;28;20050;-73
2022/03/01 09:17:06;;;;;;;12.52;7.60;;;;;;;7.04;74.76;100882.75;10296668;28;20034;-73
2022/03/01 09:22:07;;;;;;;16.73;9.10;;;;;;;6.83;74.29;100819.41;10296567;28;20030;-73
2022/03/01 09:27:08;;;;;;;15.52;8.40;;;;;;;6.77;73.56;100804.09;10297041;28;20035;-73
2022/03/01 09:32:09;;;;;;;10.63;7.18;;;;;;;6.93;74.65;100818.63;10296257;28;20122;-73
2022/03/01 09:37:10;;;;;;;10.32;6.63;;;;;;;7.51;73.68;100906.06;10295166;28;20038;-73
2022/03/01 09:42:11;;;;;;;14.00;7.78;;;;;;;6.47;75.06;100753.94;10296011;28;20137;-73
2022/03/01 09:47:12;;;;;;;14.90;8.02;;;;;;;7.36;76.22;100918.78;10295527;28;20094;-73
2022/03/01 09:52:14;;;;;;;13.65;8.05;;;;;;;7.30;75.97;100884.97;10296138;28;20062;-73
2022/03/01 09:57:16;;;;;;;13.48;8.38;;;;;;;7.40;76.67;100909.63;10295536;28;20109;-73
2022/03/01 10:02:17;;;;;;;13.10;7.30;;;;;;;7.27;77.20;100904.56;10294939;28;20084;-73
2022/03/01 10:07:25;;;;;;;10.93;7.25;;;;;;;7.01;77.96;100884.84;10295343;28;20047;-73
2022/03/01 10:12:28;;;;;;;13.25;9.05;;;;;;;7.09;78.65;100914.09;10295182;28;20476;-73
2022/03/01 10:17:47;;;;;;;14.02;7.38;;;;;;;6.72;78.12;100855.63;10295207;28;20039;-73
2022/03/01 10:22:50;;;;;;;15.38;7.80;;;;;;;6.98;79.10;100908.88;10295315;28;20110;-74
2022/03/01 10:27:52;;;;;;;14.00;8.70;;;;;;;6.55;79.63;100838.56;10294512;28;20039;-73
2022/03/01 10:33:04;;;;;;;11.38;7.10;;;;;;;7.04;79.96;100898.63;10294291;28;20039;-73
2022/03/01 10:38:07;;;;;;;13.20;8.45;;;;;;;7.07;79.99;100892.22;10293007;28;20170;-73
2022/03/01 10:43:13;;;;;;;9.63;6.68;;;;;;;7.11;80.19;100882.22;10294356;28;20078;-73
2022/03/01 10:48:24;;;;;;;18.52;8.88;;;;;;;7.13;80.67;100875.03;10292993;28;20038;-73
2022/03/01 10:53:32;;;;;;;12.73;8.30;;;;;;;6.25;81.03;100755.78;10293454;28;20475;-73
2022/03/01 10:58:36;;;;;;;10.50;6.65;;;;;;;6.36;81.15;100770.69;10294032;28;20097;-74
2022/03/01 11:03:38;;;;;;;12.70;6.95;;;;;;;7.08;81.21;100863.03;10293175;28;20033;-73
2022/03/01 11:08:41;;;;;;;11.88;7.22;;;;;;;7.08;80.92;100852.47;10293050;28;20041;-73
2022/03/01 11:13:45;;;;;;;15.15;8.98;;;;;;;7.15;80.25;100859.84;10292806;28;20463;-73
2022/03/01 11:18:56;;;;;;;15.52;8.75;;;;;;;7.12;80.08;100846.91;10292178;28;20387;-73
2022/03/01 11:23:57;;;;;;;14.75;8.40;;;;;;;7.13;78.90;100849.44;10292031;28;20038;-73
2022/03/01 11:28:58;;;;;;;11.98;7.97;;;;;;;7.16;78.97;100856.25;10292239;28;20042;-73
2022/03/01 11:34:09;;;;;;;13.73;9.43;;;;;;;7.21;78.52;100856.69;10292040;28;20042;-73
2022/03/01 11:39:16;;;;;;;17.02;8.57;;;;;;;7.24;78.86;100849.34;10292193;28;20128;-73
2022/03/01 11:44:19;;;;;;;11.77;7.90;;;;;;;7.05;79.26;100862.47;10292588;28;20058;-73
2022/03/01 11:49:21;;;;;;;11.63;6.97;;;;;;;6.83;80.29;100856.38;10291577;28;20062;-73
2022/03/01 11:54:31;;;;;;;14.10;8.32;;;;;;;5.38;80.58;100611.00;10291972;28;20039;-74
2022/03/01 11:59:37;;;;;;;14.27;9.40;;;;;;;5.45;80.40;100635.88;10295044;28;20035;-73
2022/03/01 12:04:46;;;;;;;14.18;9.98;;;;;;;6.88;81.24;100863.94;10300372;28;20041;-75
2022/03/01 12:09:58;;;;;;;16.48;10.40;;;;;;;6.14;81.51;100742.66;10299858;28;20031;-73
2022/03/01 12:14:59;;;;;;;15.73;10.52;;;;;;;6.70;82.66;100852.28;10299538;28;20577;-73
2022/03/01 12:20:01;;;;;;;15.05;10.45;;;;;;;6.47;83.18;100827.84;10310592;28;20027;-73
2022/03/01 12:25:03;;;;;;;15.75;10.90;;;;;;;6.43;82.99;100813.22;10334953;28;20026;-73
2022/03/01 12:30:05;;;;;;;18.05;11.40;;;;;;;5.93;83.05;100721.56;10327600;28;20377;-73
2022/03/01 12:35:06;;;;;;;16.95;11.27;;;;;;;6.25;82.58;100763.69;10339019;28;20038;-73
2022/03/01 12:40:08;;;;;;;16.80;12.65;;;;;;;6.57;83.28;100832.19;10318270;28;20054;-73
2022/03/01 12:45:09;;;;;;;22.63;13.25;;;;;;;6.62;82.35;100815.97;10306701;28;20038;-73
2022/03/01 12:50:17;;;;;;;19.27;13.13;;;;;;;6.52;82.21;100804.50;10335215;28;20121;-73
2022/03/01 12:55:18;;;;;;;21.52;14.00;;;;;;;5.81;81.42;100704.09;10323308;28;20101;-73
2022/03/01 13:00:20;;;;;;;18.33;11.55;;;;;;;6.34;81.76;100815.69;10330102;28;20030;-73
2022/03/01 13:05:29;;;;;;;21.52;14.52;;;;;;;5.76;82.77;100722.94;10335978;28;20447;-73
2022/03/01 13:10:32;;;;;;;22.52;15.02;;;;;;;6.46;82.24;100837.56;10326876;28;20046;-73
2022/03/01 13:15:33;;;;;;;28.45;16.55;;;;;;;5.76;81.94;100738.75;10297354;28;20546;-73
2022/03/01 13:20:34;;;;;;;17.42;13.02;;;;;;;6.14;80.82;100780.41;10297341;28;20483;-72
2022/03/01 13:25:39;;;;;;;20.75;13.35;;;;;;;6.37;80.90;100836.53;10314692;28;20045;-73
2022/03/01 13:30:40;;;;;;;;;;;;;;;6.47;79.90;100825.19;10332686;28;20045;-73
2022/03/01 13:35:41;;;;;;;28.95;17.30;;;;;;;6.31;80.29;100836.19;10328256;28;19928;-73
2022/03/01 13:40:45;;;;;;;28.50;16.48;;;;;;;6.29;80.50;100846.88;10317554;28;20205;-73
2022/03/01 13:45:46;;;;;;;26.00;15.82;;;;;;;5.58;79.71;100721.81;10304861;28;20064;-73
2022/03/01 13:50:48;;;;;;;28.13;18.13;;;;;;;5.78;79.35;100754.44;10322789;28;20141;-73
2022/03/01 13:55:54;;;;;;;27.08;17.42;;;;;;;6.24;79.38;100854.34;10327090;28;20042;-73
2022/03/01 14:00:59;;;;;;;26.52;17.40;;;;;;;6.11;79.34;100819.41;10332999;28;20026;-73
2022/03/01 14:06:09;;;;;;;28.52;18.40;;;;;;;5.47;78.85;100723.53;10329993;28;20045;-74
2022/03/01 14:11:15;;;;;;;29.23;19.67;;;;;;;6.17;79.93;100850.56;10328334;28;20386;-74
2022/03/01 14:16:22;;;;;;;34.75;20.52;;;;;;;5.39;80.30;100725.13;10329372;28;20074;-73
2022/03/01 14:21:23;;;;;;;25.75;17.88;;;;;;;5.53;79.98;100747.69;10327371;28;20496;-74
2022/03/01 14:26:26;;;;;;;30.33;18.02;;;;;;;5.90;79.85;100820.19;10309571;28;20058;-73
2022/03/01 14:31:29;;;;;;;34.00;20.45;;;;;;;5.99;80.42;100859.97;10332405;28;20038;-73
2022/03/01 14:36:31;;;;;;;33.53;19.58;;;;;;;6.00;80.73;100869.56;10333876;28;20378;-76
2022/03/01 14:41:32;;;;;;;30.65;21.08;;;;;;;5.92;81.22;100863.09;10334654;28;20598;-76
2022/03/01 14:46:33;;;;;;;37.15;21.58;;;;;;;5.92;80.41;100864.88;10333397;28;20038;-75
2022/03/01 14:51:34;;;;;;;39.22;21.27;;;;;;;5.88;79.08;100856.38;10332945;28;20045;-77
2022/03/01 14:56:38;;;;;;;40.50;24.67;;;;;;;5.23;79.74;100775.56;10333106;28;20038;-75
2022/03/01 15:01:38;;;;;;;35.22;22.40;;;;;;;5.83;79.34;100873.53;10309861;28;20034;-78
2022/03/01 15:06:39;;;;;;;40.47;25.27;;;;;;;5.82;79.76;100869.22;10293320;28;20038;-75
2022/03/01 15:11:40;;;;;;;42.35;26.55;;;;;;;4.60;79.67;100682.31;10326780;28;20121;-75
2022/03/01 15:16:41;;;;;;;50.40;29.40;;;;;;;4.55;78.97;100677.44;10329988;28;20035;-75
2022/03/01 15:21:42;;;;;;;45.60;29.70;;;;;;;5.59;79.79;100842.06;10332309;28;20101;-75
2022/03/01 15:26:42;;;;;;;42.13;25.88;;;;;;;5.36;78.97;100818.44;10331060;28;20030;-80
2022/03/01 15:31:43;;;;;;;46.50;32.50;;;;;;;5.76;78.95;100885.53;10318242;28;20141;-75
2022/03/01 15:36:44;;;;;;;47.17;29.95;;;;;;;5.77;79.11;100905.66;10331810;28;20049;-77
2022/03/01 15:41:45;;;;;;;52.55;33.72;;;;;;;4.99;78.86;100768.66;10335089;28;20057;-76
2022/03/01 15:46:46;;;;;;;49.83;35.80;;;;;;;5.41;78.89;100842.59;10297776;28;20081;-76
2022/03/01 15:51:47;;;;;;;54.40;38.00;;;;;;;5.48;79.50;100861.41;10290672;28;20498;-76
2022/03/01 15:56:48;;;;;;;54.88;36.65;;;;;;;5.31;79.30;100838.19;10292304;28;20494;-76
2022/03/01 16:01:49;;;;;;;51.15;33.20;;;;;;;5.27;79.57;100840.22;10291362;28;20041;-77
2022/03/01 16:06:49;;;;;;;63.53;39.70;;;;;;;5.68;79.83;100899.31;10291266;28;20565;-77
2022/03/01 16:11:50;;;;;;;60.00;41.42;;;;;;;5.66;79.77;100917.06;10291393;28;20038;-76
2022/03/01 16:16:51;;;;;;;66.30;43.17;;;;;;;5.47;79.74;100896.59;10291508;28;20105;-77
2022/03/01 16:21:52;;;;;;;65.05;45.33;;;;;;;5.35;80.43;100877.31;10290449;28;20081;-76
2022/03/01 16:26:53;;;;;;;69.22;44.60;;;;;;;5.49;79.95;100902.59;10306758;28;20070;-76
2022/03/01 16:31:54;;;;;;;59.08;41.10;;;;;;;5.53;79.55;100909.28;10321098;28;20482;-77
2022/03/01 16:36:57;;;;;;;61.65;36.38;;;;;;;5.62;79.26;100931.44;10331107;28;20035;-77
2022/03/01 16:41:58;;;;;;;48.50;32.08;;;;;;;5.62;78.34;100945.44;10323721;28;20050;-77
2022/03/01 16:47:03;;;;;;;47.05;31.38;;;;;;;5.10;78.07;100874.97;10330971;28;20177;-77
2022/03/01 16:52:06;;;;;;;44.90;30.85;;;;;;;5.53;77.93;100940.06;10338440;28;20042;-77
2022/03/01 16:57:12;;;;;;;34.00;24.38;;;;;;;5.42;77.32;100930.41;10322777;28;20037;-75
2022/03/01 17:02:14;;;;;;;33.30;21.50;;;;;;;5.51;77.02;100956.03;10332760;28;20042;-75
2022/03/01 17:07:15;;;;;;;29.13;18.65;;;;;;;5.44;75.26;100953.03;10335697;28;20032;-74
2022/03/01 17:12:15;;;;;;;33.90;18.77;;;;;;;5.40;74.25;100958.66;10330525;28;20046;-76
2022/03/01 17:17:16;;;;;;;28.90;17.60;;;;;;;5.35;74.20;100952.91;10329797;28;20476;-75
2022/03/01 17:22:17;;;;;;;27.20;17.77;;;;;;;5.34;74.83;100952.06;10331015;28;20034;-76
2022/03/01 17:27:19;;;;;;;32.60;19.75;;;;;;;4.53;74.73;100830.16;10334475;28;20101;-75
2022/03/01 17:32:20;;;;;;;37.85;19.48;;;;;;;4.97;74.58;100909.31;10332617;28;20065;-75
2022/03/01 17:37:21;;;;;;;33.33;22.67;;;;;;;5.27;75.48;100961.41;10327180;28;20053;-75
2022/03/01 17:42:24;;;;;;;32.95;22.73;;;;;;;4.47;74.56;100821.91;10319543;28;20101;-76
2022/03/01 17:47:25;;;;;;;32.55;20.75;;;;;;;5.11;74.79;100961.72;10327546;28;20035;-75
2022/03/01 17:52:26;;;;;;;35.92;20.27;;;;;;;5.24;75.46;100972.19;10295970;28;20030;-75
2022/03/01 17:57:27;;;;;;;39.58;22.00;;;;;;;5.23;75.19;100981.03;10298125;28;20034;-75
2022/03/01 18:02:28;;;;;;;34.65;22.48;;;;;;;5.24;75.87;100988.00;10324881;28;20030;-75
2022/03/01 18:07:29;;;;;;;30.92;20.35;;;;;;;5.24;75.42;100988.00;10327062;28;20035;-75
2022/03/01 18:12:30;;;;;;;33.17;20.67;;;;;;;4.32;75.68;100837.03;10294293;28;20635;-75
2022/03/01 18:17:32;;;;;;;32.08;21.63;;;;;;;5.05;75.82;100959.56;10297750;28;20038;-74
2022/03/01 18:22:33;;;;;;;34.95;21.33;;;;;;;5.19;76.31;100972.53;10318323;28;20031;-75
2022/03/01 18:27:34;;;;;;;38.83;21.65;;;;;;;5.00;76.70;100946.75;10293551;28;20105;-75
2022/03/01 18:32:36;;;;;;;33.33;20.67;;;;;;;4.33;76.83;100833.44;10293766;28;20038;-75
2022/03/01 18:37:37;;;;;;;34.85;20.88;;;;;;;5.14;76.73;100982.56;10294634;28;20078;-74
2022/03/01 18:42:38;;;;;;;33.17;21.65;;;;;;;4.93;77.47;100948.16;10308826;28;20054;-75
2022/03/01 18:47:39;;;;;;;33.67;21.73;;;;;;;5.15;77.44;101001.84;10292801;28;20150;-75
2022/03/01 18:52:40;;;;;;;29.27;21.58;;;;;;;4.64;77.45;100900.38;10293686;28;20042;-75
2022/03/01 18:57:41;;;;;;;34.13;21.77;;;;;;;5.21;77.29;100994.31;10293530;28;20035;-75
2022/03/01 19:02:42;;;;;;;32.50;20.02;;;;;;;5.21;77.30;100998.75;10299152;28;20132;-74
2022/03/01 19:07:43;;;;;;;27.48;19.27;;;;;;;4.38;77.71;100847.09;10329710;28;20041;-77
2022/03/01 19:12:45;;;;;;;30.67;20.08;;;;;;;5.28;78.03;100989.41;10311496;28;20489;-78
2022/03/01 19:17:46;;;;;;;27.42;19.38;;;;;;;4.35;78.47;100855.22;10292929;28;20057;-77
2022/03/01 19:22:48;;;;;;;30.95;21.15;;;;;;;5.15;78.66;100983.44;10292377;28;20066;-77
2022/03/01 19:27:49;;;;;;;35.83;21.92;;;;;;;4.55;78.75;100882.66;10292719;28;20544;-77
2022/03/01 19:32:50;;;;;;;28.15;21.23;;;;;;;5.05;79.34;100962.19;10292241;28;20066;-76
2022/03/01 19:37:52;;;;;;;25.08;17.50;;;;;;;5.04;79.90;100957.91;10292402;28;20379;-77
2022/03/01 19:42:53;;;;;;;28.13;19.30;;;;;;;5.16;79.96;100985.09;10292809;28;20047;-77
2022/03/01 19:47:54;;;;;;;24.58;17.50;;;;;;;4.10;80.26;100815.00;10292225;28;20085;-77
2022/03/01 19:52:58;;;;;;;24.90;16.30;;;;;;;4.98;80.13;100950.47;10312041;28;20081;-77
2022/03/01 19:57:58;;;;;;;29.88;16.73;;;;;;;5.16;80.82;100991.19;10291003;28;20027;-76
2022/03/01 20:03:01;;;;;;;26.83;17.25;;;;;;;5.06;81.11;100977.06;10292119;28;20061;-76
2022/03/01 20:08:03;;;;;;;22.85;15.68;;;;;;;4.96;81.66;100950.56;10290681;28;20039;-76
2022/03/01 20:13:07;;;;;;;23.70;15.32;;;;;;;5.15;81.75;100979.00;10306560;28;20407;-77
2022/03/01 20:18:09;;;;;;;20.77;13.63;;;;;;;5.29;81.55;100996.34;10292041;28;20379;-77
2022/03/01 20:23:10;;;;;;;22.70;14.02;;;;;;;5.28;81.77;100991.22;10297870;28;20270;-77
2022/03/01 20:28:11;;;;;;;21.33;13.95;;;;;;;5.05;81.41;100962.19;10298544;28;20566;-77
2022/03/01 20:33:12;;;;;;;21.85;14.48;;;;;;;5.26;81.54;100986.06;10298594;28;20058;-77
2022/03/01 20:38:13;;;;;;;22.50;16.35;;;;;;;4.57;81.60;100864.94;10302904;28;20046;-77
2022/03/01 20:43:14;;;;;;;23.67;16.65;;;;;;;5.29;81.24;100993.72;10333072;28;20046;-77
2022/03/01 20:48:15;;;;;;;22.85;12.55;;;;;;;4.82;82.65;100966.59;10339307;28;20037;-77
2022/03/01 20:53:20;;;;;;;26.73;15.35;;;;;;;4.88;83.58;101000.34;10338723;28;20041;-76
2022/03/01 20:58:21;;;;;;;23.73;13.27;;;;;;;4.58;83.74;100964.84;10338912;28;20057;-77
2022/03/01 21:03:21;;;;;;;28.35;13.63;;;;;;;4.18;84.75;100905.59;10338743;28;20054;-77
2022/03/01 21:08:22;;;;;;;33.30;17.38;;;;;;;4.64;84.48;100978.50;10338033;28;20026;-77
2022/03/01 21:13:23;;;;;;;26.08;13.93;;;;;;;3.48;84.37;100783.66;10337136;28;20045;-77
2022/03/01 21:18:24;;;;;;;21.58;13.00;;;;;;;4.71;85.22;101013.94;10338369;28;20034;-77
2022/03/01 21:23:25;;;;;;;30.65;16.17;;;;;;;4.74;85.75;101005.81;10337310;28;20352;-77
2022/03/01 21:28:26;;;;;;;24.50;13.65;;;;;;;4.74;85.92;101011.91;10337283;28;20034;-77
2022/03/01 21:33:27;;;;;;;29.38;15.80;;;;;;;4.71;86.57;101008.66;10336020;28;20038;-76
2022/03/01 21:38:28;;;;;;;28.15;15.55;;;;;;;4.86;86.69;101004.06;10337009;28;20352;-77
2022/03/01 21:43:29;;;;;;;21.88;13.13;;;;;;;4.68;87.31;100998.38;10335286;28;20104;-77
2022/03/01 21:48:30;;;;;;;23.92;14.30;;;;;;;4.55;87.90;101015.06;10335789;28;20042;-77
2022/03/01 21:53:32;;;;;;;26.13;14.55;;;;;;;3.51;88.60;100835.97;10336383;28;20030;-76
2022/03/01 21:58:33;;;;;;;22.77;12.98;;;;;;;3.88;88.32;100905.09;10335766;28;20118;-76
2022/03/01 22:03:33;;;;;;;21.70;13.77;;;;;;;4.60;88.25;101011.25;10336421;28;20084;-77
2022/03/01 22:08:34;;;;;;;23.48;15.55;;;;;;;4.40;88.71;100995.16;10336400;28;20343;-77
2022/03/01 22:13:35;;;;;;;31.75;19.17;;;;;;;4.24;90.18;101008.56;10335534;28;20049;-77
2022/03/01 22:18:36;;;;;;;33.05;22.33;;;;;;;3.62;90.71;100921.88;10335506;28;20033;-76
2022/03/01 22:23:37;;;;;;;32.15;21.58;;;;;;;3.88;91.51;100983.94;10335523;28;20056;-76
2022/03/01 22:28:38;;;;;;;35.15;23.10;;;;;;;4.08;91.81;101024.59;10334238;28;20108;-76
2022/03/01 22:33:38;;;;;;;32.28;20.77;;;;;;;3.33;92.56;100910.84;10334541;28;20034;-76
2022/03/01 22:38:39;;;;;;;38.28;22.15;;;;;;;3.99;93.60;101034.94;10334951;28;20045;-76
2022/03/01 22:43:40;;;;;;;36.42;22.08;;;;;;;3.71;93.51;100978.19;10334679;28;20054;-76
2022/03/01 22:48:41;;;;;;;32.78;19.67;;;;;;;4.15;93.93;101030.25;10334693;28;20066;-76
2022/03/01 22:53:42;;;;;;;28.75;19.13;;;;;;;4.24;93.17;101026.97;10333335;28;20046;-76